sensor_id;sensor_type;location;lat;lon;timestamp;temperature;humidity
59999;DHT22;45859;51.378;6.736;2023-02-22T00:00:36;6.20;99.90
59999;DHT22;45859;51.378;6.736;2023-02-22T00:05:35;6.00;99.90
59999;DHT22;45859;51.378;6.736;2023-02-22T00:08:04;5.90;99.90
59999;DHT22;45859;51.378;6.736;2023-02-22T00:10:34;5.70;99.90
59999;DHT22;45859;51.378;6.736;2023-02-22T00:13:03;5.70;99.90
59999;DHT22;45859;51.378;6.736;2023-02-22T00:15:30;5.50;99.90
59999;DHT22;45859;51.378;6.736;2023-02-22T00:17:56;5.50;99.90
59999;DHT22;45859;51.378;6.736;2023-02-22T00:20:22;5.40;99.90
59999;DHT22;45859;51.378;6.736;2023-02-22T00:22:49;5.30;99.90
59999;DHT22;45859;51.378;6.736;2023-02-22T00:25:21;5.20;99.90
59999;DHT22;45859;51.378;6.736;2023-02-22T00:27:48;5.10;99.90
59999;DHT22;45859;51.378;6.736;2023-02-22T00:30:22;5.10;99.90
59999;DHT22;45859;51.378;6.736;2023-02-22T00:32:49;5.00;99.90
59999;DHT22;45859;51.378;6.736;2023-02-22T00:35:17;4.90;99.90
59999;DHT22;45859;51.378;6.736;2023-02-22T00:37:46;4.90;99.90
59999;DHT22;45859;51.378;6.736;2023-02-22T00:40:16;4.80;99.90
59999;DHT22;45859;51.378;6.736;2023-02-22T00:42:41;4.80;99.90
59999;DHT22;45859;51.378;6.736;2023-02-22T00:45:07;4.80;99.90
59999;DHT22;45859;51.378;6.736;2023-02-22T00:47:33;4.60;99.90
59999;DHT22;45859;51.378;6.736;2023-02-22T00:49:59;4.60;99.90
59999;DHT22;45859;51.378;6.736;2023-02-22T00:52:25;4.60;99.90
59999;DHT22;45859;51.378;6.736;2023-02-22T00:54:52;4.50;99.90
59999;DHT22;45859;51.378;6.736;2023-02-22T00:57:19;4.50;99.90
59999;DHT22;45859;51.378;6.736;2023-02-22T00:59:44;4.40;99.90
59999;DHT22;45859;51.378;6.736;2023-02-22T01:02:10;4.40;99.90
59999;DHT22;45859;51.378;6.736;2023-02-22T01:04:35;4.30;99.90
59999;DHT22;45859;51.378;6.736;2023-02-22T01:07:01;4.30;99.90
59999;DHT22;45859;51.378;6.736;2023-02-22T01:09:27;4.20;99.90
59999;DHT22;45859;51.378;6.736;2023-02-22T01:11:54;4.20;99.90
59999;DHT22;45859;51.378;6.736;2023-02-22T01:14:21;5.50;99.90
59999;DHT22;45859;51.378;6.736;2023-02-22T01:16:49;4.10;99.90
59999;DHT22;45859;51.378;6.736;2023-02-22T01:19:15;4.00;99.90
59999;DHT22;45859;51.378;6.736;2023-02-22T01:21:41;4.00;99.90
59999;DHT22;45859;51.378;6.736;2023-02-22T01:24:07;3.90;99.90
59999;DHT22;45859;51.378;6.736;2023-02-22T01:26:33;3.90;99.90
59999;DHT22;45859;51.378;6.736;2023-02-22T01:28:59;3.90;99.90
59999;DHT22;45859;51.378;6.736;2023-02-22T01:31:25;3.90;99.90
59999;DHT22;45859;51.378;6.736;2023-02-22T01:33:51;3.90;99.90
59999;DHT22;45859;51.378;6.736;2023-02-22T01:36:16;3.90;99.90
59999;DHT22;45859;51.378;6.736;2023-02-22T01:38:44;3.90;99.90
59999;DHT22;45859;51.378;6.736;2023-02-22T01:41:10;4.00;99.90
59999;DHT22;45859;51.378;6.736;2023-02-22T01:43:36;4.10;99.90
59999;DHT22;45859;51.378;6.736;2023-02-22T01:46:15;4.20;99.90
59999;DHT22;45859;51.378;6.736;2023-02-22T01:51:24;4.50;99.90
59999;DHT22;45859;51.378;6.736;2023-02-22T01:54:15;4.50;99.90
59999;DHT22;45859;51.378;6.736;2023-02-22T01:57:06;4.50;99.90
59999;DHT22;45859;51.378;6.736;2023-02-22T01:59:36;4.40;99.90
59999;DHT22;45859;51.378;6.736;2023-02-22T02:02:03;4.40;99.90
59999;DHT22;45859;51.378;6.736;2023-02-22T02:04:31;4.30;99.90
59999;DHT22;45859;51.378;6.736;2023-02-22T02:07:00;4.20;99.90
59999;DHT22;45859;51.378;6.736;2023-02-22T02:09:57;4.20;99.90
59999;DHT22;45859;51.378;6.736;2023-02-22T02:12:24;4.10;99.90
59999;DHT22;45859;51.378;6.736;2023-02-22T02:14:50;4.10;99.90
59999;DHT22;45859;51.378;6.736;2023-02-22T02:17:18;4.10;99.90
59999;DHT22;45859;51.378;6.736;2023-02-22T02:22:54;4.10;99.90
59999;DHT22;45859;51.378;6.736;2023-02-22T02:31:07;4.00;99.90
59999;DHT22;45859;51.378;6.736;2023-02-22T02:36:32;4.00;99.90
59999;DHT22;45859;51.378;6.736;2023-02-22T02:39:28;4.00;99.90
59999;DHT22;45859;51.378;6.736;2023-02-22T02:41:55;4.00;99.90
59999;DHT22;45859;51.378;6.736;2023-02-22T02:47:02;4.00;99.90
59999;DHT22;45859;51.378;6.736;2023-02-22T02:49:54;4.00;99.90
59999;DHT22;45859;51.378;6.736;2023-02-22T02:52:24;4.00;99.90
59999;DHT22;45859;51.378;6.736;2023-02-22T02:54:50;4.00;99.90
59999;DHT22;45859;51.378;6.736;2023-02-22T02:57:16;4.10;99.90
59999;DHT22;45859;51.378;6.736;2023-02-22T02:59:42;4.10;99.90
59999;DHT22;45859;51.378;6.736;2023-02-22T03:15:53;4.30;99.90
59999;DHT22;45859;51.378;6.736;2023-02-22T03:26:45;4.40;99.90
59999;DHT22;45859;51.378;6.736;2023-02-22T03:29:14;4.50;99.90
59999;DHT22;45859;51.378;6.736;2023-02-22T03:31:49;4.60;99.90
59999;DHT22;45859;51.378;6.736;2023-02-22T03:34:23;4.60;99.90
59999;DHT22;45859;51.378;6.736;2023-02-22T03:36:58;4.60;99.90
59999;DHT22;45859;51.378;6.736;2023-02-22T03:39:25;4.60;99.90
59999;DHT22;45859;51.378;6.736;2023-02-22T03:42:01;4.70;99.90
59999;DHT22;45859;51.378;6.736;2023-02-22T03:44:30;4.70;99.90
59999;DHT22;45859;51.378;6.736;2023-02-22T03:46:58;4.70;99.90
59999;DHT22;45859;51.378;6.736;2023-02-22T03:49:36;4.70;99.90
59999;DHT22;45859;51.378;6.736;2023-02-22T03:52:06;4.70;99.90
59999;DHT22;45859;51.378;6.736;2023-02-22T03:54:32;4.70;99.90
59999;DHT22;45859;51.378;6.736;2023-02-22T03:59:39;4.80;99.90
59999;DHT22;45859;51.378;6.736;2023-02-22T04:02:05;4.80;99.90
59999;DHT22;45859;51.378;6.736;2023-02-22T04:04:31;4.90;99.90
59999;DHT22;45859;51.378;6.736;2023-02-22T04:06:57;4.90;99.90
59999;DHT22;45859;51.378;6.736;2023-02-22T04:09:22;4.90;99.90
59999;DHT22;45859;51.378;6.736;2023-02-22T04:11:48;4.80;99.90
59999;DHT22;45859;51.378;6.736;2023-02-22T04:14:14;4.90;99.90
59999;DHT22;45859;51.378;6.736;2023-02-22T04:16:39;4.90;99.90
59999;DHT22;45859;51.378;6.736;2023-02-22T04:19:05;5.00;99.90
59999;DHT22;45859;51.378;6.736;2023-02-22T04:21:31;5.00;99.90
59999;DHT22;45859;51.378;6.736;2023-02-22T04:23:58;5.00;99.90
59999;DHT22;45859;51.378;6.736;2023-02-22T04:26:24;4.90;99.90
59999;DHT22;45859;51.378;6.736;2023-02-22T04:28:50;5.00;99.90
59999;DHT22;45859;51.378;6.736;2023-02-22T04:31:16;5.00;99.90
59999;DHT22;45859;51.378;6.736;2023-02-22T04:33:41;5.00;99.90
59999;DHT22;45859;51.378;6.736;2023-02-22T04:36:08;5.00;99.90
59999;DHT22;45859;51.378;6.736;2023-02-22T04:38:35;4.90;99.90
59999;DHT22;45859;51.378;6.736;2023-02-22T04:41:01;4.90;99.90
59999;DHT22;45859;51.378;6.736;2023-02-22T04:43:26;4.90;99.90
59999;DHT22;45859;51.378;6.736;2023-02-22T04:45:52;4.80;99.90
59999;DHT22;45859;51.378;6.736;2023-02-22T04:48:18;4.90;99.90
59999;DHT22;45859;51.378;6.736;2023-02-22T04:50:43;4.80;99.90
59999;DHT22;45859;51.378;6.736;2023-02-22T04:53:09;4.90;99.90
59999;DHT22;45859;51.378;6.736;2023-02-22T04:55:35;4.90;99.90
59999;DHT22;45859;51.378;6.736;2023-02-22T04:58:01;4.90;99.90
59999;DHT22;45859;51.378;6.736;2023-02-22T05:00:26;5.10;99.90
59999;DHT22;45859;51.378;6.736;2023-02-22T05:02:52;4.70;99.90
59999;DHT22;45859;51.378;6.736;2023-02-22T05:05:19;4.80;99.90
59999;DHT22;45859;51.378;6.736;2023-02-22T05:07:49;4.90;99.90
59999;DHT22;45859;51.378;6.736;2023-02-22T05:10:15;4.90;99.90
59999;DHT22;45859;51.378;6.736;2023-02-22T05:12:40;5.00;99.90
59999;DHT22;45859;51.378;6.736;2023-02-22T05:15:07;4.90;99.90
59999;DHT22;45859;51.378;6.736;2023-02-22T05:17:34;4.90;99.90
59999;DHT22;45859;51.378;6.736;2023-02-22T05:20:00;4.90;99.90
59999;DHT22;45859;51.378;6.736;2023-02-22T05:22:27;4.90;99.90
59999;DHT22;45859;51.378;6.736;2023-02-22T05:24:52;5.00;99.90
59999;DHT22;45859;51.378;6.736;2023-02-22T05:27:18;5.10;99.90
59999;DHT22;45859;51.378;6.736;2023-02-22T05:29:44;5.10;99.90
59999;DHT22;45859;51.378;6.736;2023-02-22T05:32:10;5.10;99.90
59999;DHT22;45859;51.378;6.736;2023-02-22T05:34:41;5.20;99.90
59999;DHT22;45859;51.378;6.736;2023-02-22T05:37:07;5.10;99.90
59999;DHT22;45859;51.378;6.736;2023-02-22T05:39:32;5.20;99.90
59999;DHT22;45859;51.378;6.736;2023-02-22T05:41:58;5.20;99.90
59999;DHT22;45859;51.378;6.736;2023-02-22T05:44:24;5.30;99.90
59999;DHT22;45859;51.378;6.736;2023-02-22T05:46:50;5.30;99.90
59999;DHT22;45859;51.378;6.736;2023-02-22T05:49:15;5.30;99.90
59999;DHT22;45859;51.378;6.736;2023-02-22T05:51:41;6.20;99.90
59999;DHT22;45859;51.378;6.736;2023-02-22T05:54:06;5.90;99.90
59999;DHT22;45859;51.378;6.736;2023-02-22T05:56:32;5.90;99.90
59999;DHT22;45859;51.378;6.736;2023-02-22T05:58:58;5.50;99.90
59999;DHT22;45859;51.378;6.736;2023-02-22T06:01:24;5.50;99.90
59999;DHT22;45859;51.378;6.736;2023-02-22T06:03:50;5.60;99.90
59999;DHT22;45859;51.378;6.736;2023-02-22T06:06:17;5.60;99.90
59999;DHT22;45859;51.378;6.736;2023-02-22T06:08:44;5.50;99.90
59999;DHT22;45859;51.378;6.736;2023-02-22T06:11:11;5.50;99.90
59999;DHT22;45859;51.378;6.736;2023-02-22T06:13:37;5.50;99.90
59999;DHT22;45859;51.378;6.736;2023-02-22T06:16:04;5.50;99.90
59999;DHT22;45859;51.378;6.736;2023-02-22T06:18:29;5.50;99.90
59999;DHT22;45859;51.378;6.736;2023-02-22T06:20:56;5.50;99.90
59999;DHT22;45859;51.378;6.736;2023-02-22T06:23:23;5.50;99.90
59999;DHT22;45859;51.378;6.736;2023-02-22T06:25:48;5.50;99.90
59999;DHT22;45859;51.378;6.736;2023-02-22T06:28:14;5.50;99.90
59999;DHT22;45859;51.378;6.736;2023-02-22T06:30:40;5.50;99.90
59999;DHT22;45859;51.378;6.736;2023-02-22T06:33:07;5.50;99.90
59999;DHT22;45859;51.378;6.736;2023-02-22T06:35:33;5.50;99.90
59999;DHT22;45859;51.378;6.736;2023-02-22T06:37:59;5.50;99.90
59999;DHT22;45859;51.378;6.736;2023-02-22T06:40:25;5.40;99.90
59999;DHT22;45859;51.378;6.736;2023-02-22T06:42:55;5.40;99.90
59999;DHT22;45859;51.378;6.736;2023-02-22T06:45:21;5.40;99.90
59999;DHT22;45859;51.378;6.736;2023-02-22T06:47:47;5.40;99.90
59999;DHT22;45859;51.378;6.736;2023-02-22T06:50:28;5.30;99.90
59999;DHT22;45859;51.378;6.736;2023-02-22T06:52:54;5.30;99.90
59999;DHT22;45859;51.378;6.736;2023-02-22T06:55:22;5.30;99.90
59999;DHT22;45859;51.378;6.736;2023-02-22T06:57:48;5.80;99.90
59999;DHT22;45859;51.378;6.736;2023-02-22T07:00:16;5.50;99.90
59999;DHT22;45859;51.378;6.736;2023-02-22T07:02:43;5.30;99.90
59999;DHT22;45859;51.378;6.736;2023-02-22T07:05:11;5.30;99.90
59999;DHT22;45859;51.378;6.736;2023-02-22T07:07:37;7.40;99.90
59999;DHT22;45859;51.378;6.736;2023-02-22T07:10:07;5.30;99.90
59999;DHT22;45859;51.378;6.736;2023-02-22T07:12:33;5.30;99.90
59999;DHT22;45859;51.378;6.736;2023-02-22T07:15:00;5.30;99.90
59999;DHT22;45859;51.378;6.736;2023-02-22T07:17:25;5.30;99.90
59999;DHT22;45859;51.378;6.736;2023-02-22T07:19:51;5.40;99.90
59999;DHT22;45859;51.378;6.736;2023-02-22T07:22:16;5.40;99.90
59999;DHT22;45859;51.378;6.736;2023-02-22T07:24:42;5.30;99.90
59999;DHT22;45859;51.378;6.736;2023-02-22T07:27:08;5.40;99.90
59999;DHT22;45859;51.378;6.736;2023-02-22T07:29:33;5.40;99.90
59999;DHT22;45859;51.378;6.736;2023-02-22T07:32:01;5.50;99.90
59999;DHT22;45859;51.378;6.736;2023-02-22T07:34:26;5.50;99.90
59999;DHT22;45859;51.378;6.736;2023-02-22T07:36:52;5.50;99.90
59999;DHT22;45859;51.378;6.736;2023-02-22T07:39:18;5.60;99.90
59999;DHT22;45859;51.378;6.736;2023-02-22T07:41:43;5.60;99.90
59999;DHT22;45859;51.378;6.736;2023-02-22T07:44:09;5.60;99.90
59999;DHT22;45859;51.378;6.736;2023-02-22T07:46:34;5.70;99.90
59999;DHT22;45859;51.378;6.736;2023-02-22T07:49:00;5.70;99.90
59999;DHT22;45859;51.378;6.736;2023-02-22T07:51:25;5.80;99.90
59999;DHT22;45859;51.378;6.736;2023-02-22T07:53:51;5.90;99.90
59999;DHT22;45859;51.378;6.736;2023-02-22T07:56:17;6.90;99.90
59999;DHT22;45859;51.378;6.736;2023-02-22T07:58:43;6.50;99.90
59999;DHT22;45859;51.378;6.736;2023-02-22T08:01:08;6.40;99.90
59999;DHT22;45859;51.378;6.736;2023-02-22T08:03:34;6.70;99.90
59999;DHT22;45859;51.378;6.736;2023-02-22T08:06:03;6.90;99.90
59999;DHT22;45859;51.378;6.736;2023-02-22T08:08:29;7.10;99.90
59999;DHT22;45859;51.378;6.736;2023-02-22T08:10:55;7.40;99.90
59999;DHT22;45859;51.378;6.736;2023-02-22T08:13:22;7.70;99.90
59999;DHT22;45859;51.378;6.736;2023-02-22T08:15:50;8.40;99.90
59999;DHT22;45859;51.378;6.736;2023-02-22T08:18:17;8.20;99.90
59999;DHT22;45859;51.378;6.736;2023-02-22T08:20:45;8.60;99.90
59999;DHT22;45859;51.378;6.736;2023-02-22T08:23:12;8.10;99.90
59999;DHT22;45859;51.378;6.736;2023-02-22T08:25:37;8.10;99.90
59999;DHT22;45859;51.378;6.736;2023-02-22T08:28:09;8.10;99.90
59999;DHT22;45859;51.378;6.736;2023-02-22T08:30:36;8.40;99.90
59999;DHT22;45859;51.378;6.736;2023-02-22T08:33:03;8.20;99.90
59999;DHT22;45859;51.378;6.736;2023-02-22T08:35:30;8.40;99.90
59999;DHT22;45859;51.378;6.736;2023-02-22T08:38:02;8.40;99.90
59999;DHT22;45859;51.378;6.736;2023-02-22T08:40:31;8.50;99.90
59999;DHT22;45859;51.378;6.736;2023-02-22T08:42:57;8.80;99.90
59999;DHT22;45859;51.378;6.736;2023-02-22T08:45:23;9.20;99.90
59999;DHT22;45859;51.378;6.736;2023-02-22T08:47:49;9.40;99.90
59999;DHT22;45859;51.378;6.736;2023-02-22T08:50:24;9.70;99.90
59999;DHT22;45859;51.378;6.736;2023-02-22T08:52:52;9.90;99.90
59999;DHT22;45859;51.378;6.736;2023-02-22T08:55:20;10.00;99.90
59999;DHT22;45859;51.378;6.736;2023-02-22T08:57:46;10.30;99.90
59999;DHT22;45859;51.378;6.736;2023-02-22T09:00:12;10.10;99.90
59999;DHT22;45859;51.378;6.736;2023-02-22T09:02:38;10.60;99.90
59999;DHT22;45859;51.378;6.736;2023-02-22T09:05:03;10.90;99.90
59999;DHT22;45859;51.378;6.736;2023-02-22T09:07:30;11.00;99.90
59999;DHT22;45859;51.378;6.736;2023-02-22T09:09:55;10.70;99.90
59999;DHT22;45859;51.378;6.736;2023-02-22T09:12:21;10.80;99.90
59999;DHT22;45859;51.378;6.736;2023-02-22T09:14:47;10.50;99.90
59999;DHT22;45859;51.378;6.736;2023-02-22T09:17:12;10.70;99.90
59999;DHT22;45859;51.378;6.736;2023-02-22T09:19:38;10.90;99.90
59999;DHT22;45859;51.378;6.736;2023-02-22T09:22:03;11.60;99.90
59999;DHT22;45859;51.378;6.736;2023-02-22T09:24:29;12.00;99.90
59999;DHT22;45859;51.378;6.736;2023-02-22T09:26:55;11.40;99.90
59999;DHT22;45859;51.378;6.736;2023-02-22T09:29:22;11.10;99.90
59999;DHT22;45859;51.378;6.736;2023-02-22T09:31:50;11.00;99.90
59999;DHT22;45859;51.378;6.736;2023-02-22T09:34:17;10.70;99.90
59999;DHT22;45859;51.378;6.736;2023-02-22T09:36:45;10.50;99.90
59999;DHT22;45859;51.378;6.736;2023-02-22T09:39:13;10.50;99.90
59999;DHT22;45859;51.378;6.736;2023-02-22T09:44:48;10.60;99.90
59999;DHT22;45859;51.378;6.736;2023-02-22T09:47:20;10.50;99.90
59999;DHT22;45859;51.378;6.736;2023-02-22T09:49:56;10.50;99.90
59999;DHT22;45859;51.378;6.736;2023-02-22T09:52:29;10.60;99.90
59999;DHT22;45859;51.378;6.736;2023-02-22T09:55:14;10.60;99.90
59999;DHT22;45859;51.378;6.736;2023-02-22T09:57:42;10.60;99.90
59999;DHT22;45859;51.378;6.736;2023-02-22T10:00:19;10.80;99.90
59999;DHT22;45859;51.378;6.736;2023-02-22T10:02:51;11.00;99.90
59999;DHT22;45859;51.378;6.736;2023-02-22T10:05:23;10.90;99.90
59999;DHT22;45859;51.378;6.736;2023-02-22T10:08:00;10.90;99.90
59999;DHT22;45859;51.378;6.736;2023-02-22T10:10:34;10.90;99.90
59999;DHT22;45859;51.378;6.736;2023-02-22T10:13:20;11.10;99.90
59999;DHT22;45859;51.378;6.736;2023-02-22T10:24:08;11.10;99.90
59999;DHT22;45859;51.378;6.736;2023-02-22T10:26:41;11.30;99.90
59999;DHT22;45859;51.378;6.736;2023-02-22T10:29:31;11.30;99.90
59999;DHT22;45859;51.378;6.736;2023-02-22T10:32:00;11.60;99.90
59999;DHT22;45859;51.378;6.736;2023-02-22T10:34:31;11.50;99.90
59999;DHT22;45859;51.378;6.736;2023-02-22T10:37:22;11.50;99.90
59999;DHT22;45859;51.378;6.736;2023-02-22T10:39:50;11.70;99.90
59999;DHT22;45859;51.378;6.736;2023-02-22T10:42:19;11.70;99.90
59999;DHT22;45859;51.378;6.736;2023-02-22T10:44:47;11.90;99.90
59999;DHT22;45859;51.378;6.736;2023-02-22T10:47:14;12.10;99.90
59999;DHT22;45859;51.378;6.736;2023-02-22T10:49:46;12.20;99.90
59999;DHT22;45859;51.378;6.736;2023-02-22T10:52:28;12.20;99.90
59999;DHT22;45859;51.378;6.736;2023-02-22T10:54:57;12.40;99.90
59999;DHT22;45859;51.378;6.736;2023-02-22T10:57:32;12.50;99.90
59999;DHT22;45859;51.378;6.736;2023-02-22T11:03:21;12.60;99.90
59999;DHT22;45859;51.378;6.736;2023-02-22T11:05:48;12.50;99.90
59999;DHT22;45859;51.378;6.736;2023-02-22T11:10:52;12.60;99.90
59999;DHT22;45859;51.378;6.736;2023-02-22T11:13:37;12.70;99.90
59999;DHT22;45859;51.378;6.736;2023-02-22T11:21:45;13.00;99.90
59999;DHT22;45859;51.378;6.736;2023-02-22T11:24:13;13.20;99.90
59999;DHT22;45859;51.378;6.736;2023-02-22T11:26:52;13.20;99.90
59999;DHT22;45859;51.378;6.736;2023-02-22T11:29:33;13.30;99.90
59999;DHT22;45859;51.378;6.736;2023-02-22T11:32:12;13.20;99.90
59999;DHT22;45859;51.378;6.736;2023-02-22T11:34:40;13.20;99.90
59999;DHT22;45859;51.378;6.736;2023-02-22T11:39:48;13.30;99.90
59999;DHT22;45859;51.378;6.736;2023-02-22T11:42:28;13.30;99.90
59999;DHT22;45859;51.378;6.736;2023-02-22T11:45:30;13.40;99.90
59999;DHT22;45859;51.378;6.736;2023-02-22T11:48:00;13.70;99.90
59999;DHT22;45859;51.378;6.736;2023-02-22T11:50:43;13.70;99.90
59999;DHT22;45859;51.378;6.736;2023-02-22T11:56:21;13.50;99.90
59999;DHT22;45859;51.378;6.736;2023-02-22T12:01:35;13.70;99.90
59999;DHT22;45859;51.378;6.736;2023-02-22T12:09:30;13.70;99.90
59999;DHT22;45859;51.378;6.736;2023-02-22T12:19:59;13.70;99.90
59999;DHT22;45859;51.378;6.736;2023-02-22T12:22:33;13.70;99.90
59999;DHT22;45859;51.378;6.736;2023-02-22T12:25:06;13.80;99.90
59999;DHT22;45859;51.378;6.736;2023-02-22T12:27:44;14.00;99.90
59999;DHT22;45859;51.378;6.736;2023-02-22T12:33:00;14.00;99.90
59999;DHT22;45859;51.378;6.736;2023-02-22T12:35:32;14.00;99.90
59999;DHT22;45859;51.378;6.736;2023-02-22T12:48:38;14.30;99.90
59999;DHT22;45859;51.378;6.736;2023-02-22T12:53:43;14.40;99.90
59999;DHT22;45859;51.378;6.736;2023-02-22T12:56:29;14.40;99.90
59999;DHT22;45859;51.378;6.736;2023-02-22T12:59:05;14.30;99.90
59999;DHT22;45859;51.378;6.736;2023-02-22T13:01:42;14.30;99.90
59999;DHT22;45859;51.378;6.736;2023-02-22T13:04:10;14.30;99.90
59999;DHT22;45859;51.378;6.736;2023-02-22T13:17:55;14.30;99.90
59999;DHT22;45859;51.378;6.736;2023-02-22T13:20:22;14.10;99.90
59999;DHT22;45859;51.378;6.736;2023-02-22T13:23:08;14.10;99.90
59999;DHT22;45859;51.378;6.736;2023-02-22T13:25:47;14.20;99.90
59999;DHT22;45859;51.378;6.736;2023-02-22T13:28:27;14.30;99.90
59999;DHT22;45859;51.378;6.736;2023-02-22T13:31:06;14.30;99.90
59999;DHT22;45859;51.378;6.736;2023-02-22T13:36:37;14.30;99.90
59999;DHT22;45859;51.378;6.736;2023-02-22T13:47:32;14.40;99.90
59999;DHT22;45859;51.378;6.736;2023-02-22T13:52:49;14.60;99.90
59999;DHT22;45859;51.378;6.736;2023-02-22T13:55:20;14.80;99.90
59999;DHT22;45859;51.378;6.736;2023-02-22T13:57:48;13.10;99.90
59999;DHT22;45859;51.378;6.736;2023-02-22T14:03:04;14.90;99.90
59999;DHT22;45859;51.378;6.736;2023-02-22T14:08:02;14.80;99.90
59999;DHT22;45859;51.378;6.736;2023-02-22T14:10:49;14.80;99.90
59999;DHT22;45859;51.378;6.736;2023-02-22T14:13:23;14.80;99.90
59999;DHT22;45859;51.378;6.736;2023-02-22T14:16:15;14.80;99.90
59999;DHT22;45859;51.378;6.736;2023-02-22T14:18:43;14.80;99.90
59999;DHT22;45859;51.378;6.736;2023-02-22T14:21:20;14.80;99.90
59999;DHT22;45859;51.378;6.736;2023-02-22T14:24:12;14.80;99.90
59999;DHT22;45859;51.378;6.736;2023-02-22T14:26:39;14.80;99.90
59999;DHT22;45859;51.378;6.736;2023-02-22T14:37:21;14.60;99.90
59999;DHT22;45859;51.378;6.736;2023-02-22T14:42:41;14.50;99.90
59999;DHT22;45859;51.378;6.736;2023-02-22T14:47:57;14.50;99.90
59999;DHT22;45859;51.378;6.736;2023-02-22T14:55:45;14.70;99.90
59999;DHT22;45859;51.378;6.736;2023-02-22T14:58:22;14.60;99.90
59999;DHT22;45859;51.378;6.736;2023-02-22T15:00:51;14.60;99.90
59999;DHT22;45859;51.378;6.736;2023-02-22T15:05:46;14.70;99.90
59999;DHT22;45859;51.378;6.736;2023-02-22T15:08:16;14.70;99.90
59999;DHT22;45859;51.378;6.736;2023-02-22T15:10:45;14.80;99.90
59999;DHT22;45859;51.378;6.736;2023-02-22T15:13:23;14.80;99.90
59999;DHT22;45859;51.378;6.736;2023-02-22T15:15:58;14.80;99.90
59999;DHT22;45859;51.378;6.736;2023-02-22T15:18:43;14.80;99.90
59999;DHT22;45859;51.378;6.736;2023-02-22T15:21:16;14.60;99.90
59999;DHT22;45859;51.378;6.736;2023-02-22T15:28:57;14.60;99.90
59999;DHT22;45859;51.378;6.736;2023-02-22T15:31:28;14.50;99.90
59999;DHT22;45859;51.378;6.736;2023-02-22T15:33:54;14.50;99.90
59999;DHT22;45859;51.378;6.736;2023-02-22T15:36:25;14.40;99.90
59999;DHT22;45859;51.378;6.736;2023-02-22T15:38:53;14.30;99.90
59999;DHT22;45859;51.378;6.736;2023-02-22T15:44:02;14.10;99.90
59999;DHT22;45859;51.378;6.736;2023-02-22T15:46:29;14.10;99.90
59999;DHT22;45859;51.378;6.736;2023-02-22T15:51:38;14.00;99.90
59999;DHT22;45859;51.378;6.736;2023-02-22T15:54:05;14.00;99.90
59999;DHT22;45859;51.378;6.736;2023-02-22T15:56:34;14.00;99.90
59999;DHT22;45859;51.378;6.736;2023-02-22T15:59:21;14.00;99.90
59999;DHT22;45859;51.378;6.736;2023-02-22T16:01:54;14.00;99.90
59999;DHT22;45859;51.378;6.736;2023-02-22T16:04:26;14.00;99.90
59999;DHT22;45859;51.378;6.736;2023-02-22T16:07:04;13.90;99.90
59999;DHT22;45859;51.378;6.736;2023-02-22T16:09:32;13.90;99.90
59999;DHT22;45859;51.378;6.736;2023-02-22T16:22:50;13.60;99.90
59999;DHT22;45859;51.378;6.736;2023-02-22T16:27:58;13.50;99.90
59999;DHT22;45859;51.378;6.736;2023-02-22T16:30:34;13.50;99.90
59999;DHT22;45859;51.378;6.736;2023-02-22T16:33:04;13.50;99.90
59999;DHT22;45859;51.378;6.736;2023-02-22T16:35:30;13.50;99.90
59999;DHT22;45859;51.378;6.736;2023-02-22T16:38:01;13.50;99.90
59999;DHT22;45859;51.378;6.736;2023-02-22T16:40:34;13.50;99.90
59999;DHT22;45859;51.378;6.736;2023-02-22T16:43:05;13.30;99.90
59999;DHT22;45859;51.378;6.736;2023-02-22T16:45:32;13.30;99.90
59999;DHT22;45859;51.378;6.736;2023-02-22T16:47:59;13.30;99.90
59999;DHT22;45859;51.378;6.736;2023-02-22T16:50:25;13.20;99.90
59999;DHT22;45859;51.378;6.736;2023-02-22T16:52:52;13.10;99.90
59999;DHT22;45859;51.378;6.736;2023-02-22T16:55:20;13.20;99.90
59999;DHT22;45859;51.378;6.736;2023-02-22T16:57:47;12.90;99.90
59999;DHT22;45859;51.378;6.736;2023-02-22T17:00:23;13.00;99.90
59999;DHT22;45859;51.378;6.736;2023-02-22T17:03:00;12.70;99.90
59999;DHT22;45859;51.378;6.736;2023-02-22T17:05:32;12.60;99.90
59999;DHT22;45859;51.378;6.736;2023-02-22T17:08:02;12.60;99.90
59999;DHT22;45859;51.378;6.736;2023-02-22T17:10:28;12.50;99.90
59999;DHT22;45859;51.378;6.736;2023-02-22T17:12:54;12.40;99.90
59999;DHT22;45859;51.378;6.736;2023-02-22T17:15:29;12.40;99.90
59999;DHT22;45859;51.378;6.736;2023-02-22T17:17:56;12.30;99.90
59999;DHT22;45859;51.378;6.736;2023-02-22T17:20:22;12.20;99.90
59999;DHT22;45859;51.378;6.736;2023-02-22T17:23:02;12.10;99.90
59999;DHT22;45859;51.378;6.736;2023-02-22T17:28:22;12.10;99.90
59999;DHT22;45859;51.378;6.736;2023-02-22T17:30:48;12.30;99.90
59999;DHT22;45859;51.378;6.736;2023-02-22T17:33:21;12.10;99.90
59999;DHT22;45859;51.378;6.736;2023-02-22T17:35:51;12.10;99.90
59999;DHT22;45859;51.378;6.736;2023-02-22T17:38:17;12.10;99.90
59999;DHT22;45859;51.378;6.736;2023-02-22T17:40:44;12.00;99.90
59999;DHT22;45859;51.378;6.736;2023-02-22T17:43:14;12.00;99.90
59999;DHT22;45859;51.378;6.736;2023-02-22T17:45:40;11.90;99.90
59999;DHT22;45859;51.378;6.736;2023-02-22T17:48:07;11.90;99.90
59999;DHT22;45859;51.378;6.736;2023-02-22T17:50:37;11.80;99.90
59999;DHT22;45859;51.378;6.736;2023-02-22T17:53:04;11.70;99.90
59999;DHT22;45859;51.378;6.736;2023-02-22T17:55:30;11.60;99.90
59999;DHT22;45859;51.378;6.736;2023-02-22T17:57:58;11.60;99.90
59999;DHT22;45859;51.378;6.736;2023-02-22T18:00:29;11.60;99.90
59999;DHT22;45859;51.378;6.736;2023-02-22T18:03:06;11.50;99.90
59999;DHT22;45859;51.378;6.736;2023-02-22T18:05:33;11.50;99.90
59999;DHT22;45859;51.378;6.736;2023-02-22T18:07:59;11.50;99.90
59999;DHT22;45859;51.378;6.736;2023-02-22T18:10:25;11.50;99.90
59999;DHT22;45859;51.378;6.736;2023-02-22T18:12:51;11.40;99.90
59999;DHT22;45859;51.378;6.736;2023-02-22T18:15:18;11.40;99.90
59999;DHT22;45859;51.378;6.736;2023-02-22T18:17:45;11.30;99.90
59999;DHT22;45859;51.378;6.736;2023-02-22T18:20:12;11.30;99.90
59999;DHT22;45859;51.378;6.736;2023-02-22T18:22:44;11.30;99.90
59999;DHT22;45859;51.378;6.736;2023-02-22T18:25:11;11.40;99.90
59999;DHT22;45859;51.378;6.736;2023-02-22T18:27:39;11.50;99.90
59999;DHT22;45859;51.378;6.736;2023-02-22T18:30:08;11.20;99.90
59999;DHT22;45859;51.378;6.736;2023-02-22T18:32:33;11.20;99.90
59999;DHT22;45859;51.378;6.736;2023-02-22T18:34:59;11.30;99.90
59999;DHT22;45859;51.378;6.736;2023-02-22T18:37:25;11.20;99.90
59999;DHT22;45859;51.378;6.736;2023-02-22T18:39:54;11.20;99.90
59999;DHT22;45859;51.378;6.736;2023-02-22T18:42:25;11.10;99.90
59999;DHT22;45859;51.378;6.736;2023-02-22T18:44:51;10.90;99.90
59999;DHT22;45859;51.378;6.736;2023-02-22T18:47:19;10.70;99.90
59999;DHT22;45859;51.378;6.736;2023-02-22T18:49:45;10.60;99.90
59999;DHT22;45859;51.378;6.736;2023-02-22T18:52:10;10.70;99.90
59999;DHT22;45859;51.378;6.736;2023-02-22T18:54:38;10.30;99.90
59999;DHT22;45859;51.378;6.736;2023-02-22T18:57:04;10.20;99.90